sensor_id;sensor_type;location;lat;lon;timestamp;temperature;humidity
34406;DHT22;20658;45.630;8.886;2022-08-25T00:00:05;22.60;64.60
34406;DHT22;20658;45.630;8.886;2022-08-25T00:02:40;22.60;64.80
34406;DHT22;20658;45.630;8.886;2022-08-25T00:05:14;22.60;65.20
34406;DHT22;20658;45.630;8.886;2022-08-25T00:07:47;22.50;65.30
34406;DHT22;20658;45.630;8.886;2022-08-25T00:10:21;22.50;65.60
34406;DHT22;20658;45.630;8.886;2022-08-25T00:12:54;22.50;65.50
34406;DHT22;20658;45.630;8.886;2022-08-25T00:15:30;22.40;65.50
34406;DHT22;20658;45.630;8.886;2022-08-25T00:18:04;22.50;65.90
34406;DHT22;20658;45.630;8.886;2022-08-25T00:20:37;22.40;65.90
34406;DHT22;20658;45.630;8.886;2022-08-25T00:23:11;22.30;65.80
34406;DHT22;20658;45.630;8.886;2022-08-25T00:25:44;22.30;65.90
34406;DHT22;20658;45.630;8.886;2022-08-25T00:28:18;22.30;66.10
34406;DHT22;20658;45.630;8.886;2022-08-25T00:30:53;22.30;66.20
34406;DHT22;20658;45.630;8.886;2022-08-25T00:33:27;22.30;66.40
34406;DHT22;20658;45.630;8.886;2022-08-25T00:36:02;22.20;66.30
34406;DHT22;20658;45.630;8.886;2022-08-25T00:38:37;22.30;65.90
34406;DHT22;20658;45.630;8.886;2022-08-25T00:41:14;22.30;65.90
34406;DHT22;20658;45.630;8.886;2022-08-25T00:43:51;22.30;65.90
34406;DHT22;20658;45.630;8.886;2022-08-25T00:46:31;22.20;65.80
34406;DHT22;20658;45.630;8.886;2022-08-25T00:49:10;22.20;66.00
34406;DHT22;20658;45.630;8.886;2022-08-25T00:51:50;22.20;66.10
34406;DHT22;20658;45.630;8.886;2022-08-25T00:54:28;22.20;66.30
34406;DHT22;20658;45.630;8.886;2022-08-25T00:57:14;22.10;66.50
34406;DHT22;20658;45.630;8.886;2022-08-25T00:59:49;22.10;66.70
34406;DHT22;20658;45.630;8.886;2022-08-25T01:02:24;22.00;66.80
34406;DHT22;20658;45.630;8.886;2022-08-25T01:04:52;22.00;67.20
34406;DHT22;20658;45.630;8.886;2022-08-25T01:07:21;22.00;67.40
34406;DHT22;20658;45.630;8.886;2022-08-25T01:09:54;21.90;67.80
34406;DHT22;20658;45.630;8.886;2022-08-25T01:12:28;21.80;67.90
34406;DHT22;20658;45.630;8.886;2022-08-25T01:15:04;21.80;68.00
34406;DHT22;20658;45.630;8.886;2022-08-25T01:17:46;21.80;68.30
34406;DHT22;20658;45.630;8.886;2022-08-25T01:20:18;21.80;68.50
34406;DHT22;20658;45.630;8.886;2022-08-25T01:22:54;21.70;68.50
34406;DHT22;20658;45.630;8.886;2022-08-25T01:25:29;21.70;68.70
34406;DHT22;20658;45.630;8.886;2022-08-25T01:28:09;21.70;68.90
34406;DHT22;20658;45.630;8.886;2022-08-25T01:30:42;21.60;68.80
34406;DHT22;20658;45.630;8.886;2022-08-25T01:33:11;21.60;68.90
34406;DHT22;20658;45.630;8.886;2022-08-25T01:35:40;21.60;68.70
34406;DHT22;20658;45.630;8.886;2022-08-25T01:38:10;21.50;68.90
34406;DHT22;20658;45.630;8.886;2022-08-25T01:40:44;21.50;68.80
34406;DHT22;20658;45.630;8.886;2022-08-25T01:43:25;21.50;68.80
34406;DHT22;20658;45.630;8.886;2022-08-25T01:46:03;21.50;68.90
34406;DHT22;20658;45.630;8.886;2022-08-25T01:48:37;21.50;68.90
34406;DHT22;20658;45.630;8.886;2022-08-25T01:51:06;21.50;69.00
34406;DHT22;20658;45.630;8.886;2022-08-25T01:53:36;21.40;69.20
34406;DHT22;20658;45.630;8.886;2022-08-25T01:56:12;21.40;69.40
34406;DHT22;20658;45.630;8.886;2022-08-25T01:58:47;21.40;69.40
34406;DHT22;20658;45.630;8.886;2022-08-25T02:01:23;21.30;69.60
34406;DHT22;20658;45.630;8.886;2022-08-25T02:03:57;21.30;69.60
34406;DHT22;20658;45.630;8.886;2022-08-25T02:06:32;21.30;69.80
34406;DHT22;20658;45.630;8.886;2022-08-25T02:09:10;21.30;70.00
34406;DHT22;20658;45.630;8.886;2022-08-25T02:11:46;21.20;70.10
34406;DHT22;20658;45.630;8.886;2022-08-25T02:14:19;21.20;70.10
34406;DHT22;20658;45.630;8.886;2022-08-25T02:16:50;21.20;70.20
34406;DHT22;20658;45.630;8.886;2022-08-25T02:19:25;21.20;70.20
34406;DHT22;20658;45.630;8.886;2022-08-25T02:21:58;21.20;70.30
34406;DHT22;20658;45.630;8.886;2022-08-25T02:24:29;21.10;70.70
34406;DHT22;20658;45.630;8.886;2022-08-25T02:27:03;21.10;70.70
34406;DHT22;20658;45.630;8.886;2022-08-25T02:29:37;21.10;70.80
34406;DHT22;20658;45.630;8.886;2022-08-25T02:32:10;21.00;70.80
34406;DHT22;20658;45.630;8.886;2022-08-25T02:34:44;21.00;71.10
34406;DHT22;20658;45.630;8.886;2022-08-25T02:37:17;21.00;71.00
34406;DHT22;20658;45.630;8.886;2022-08-25T02:39:52;21.00;71.00
34406;DHT22;20658;45.630;8.886;2022-08-25T02:42:26;21.00;71.30
34406;DHT22;20658;45.630;8.886;2022-08-25T02:45:00;21.00;71.50
34406;DHT22;20658;45.630;8.886;2022-08-25T02:47:34;21.00;71.80
34406;DHT22;20658;45.630;8.886;2022-08-25T02:50:08;21.00;71.90
34406;DHT22;20658;45.630;8.886;2022-08-25T02:52:42;21.00;71.80
34406;DHT22;20658;45.630;8.886;2022-08-25T02:55:18;21.00;72.20
34406;DHT22;20658;45.630;8.886;2022-08-25T02:57:51;20.90;72.20
34406;DHT22;20658;45.630;8.886;2022-08-25T03:00:25;20.90;72.20
34406;DHT22;20658;45.630;8.886;2022-08-25T03:02:58;20.80;72.30
34406;DHT22;20658;45.630;8.886;2022-08-25T03:05:32;20.90;72.70
34406;DHT22;20658;45.630;8.886;2022-08-25T03:08:06;20.90;72.70
34406;DHT22;20658;45.630;8.886;2022-08-25T03:10:43;20.90;72.80
34406;DHT22;20658;45.630;8.886;2022-08-25T03:13:16;20.90;72.60
34406;DHT22;20658;45.630;8.886;2022-08-25T03:15:50;20.90;72.70
34406;DHT22;20658;45.630;8.886;2022-08-25T03:18:25;20.80;72.80
34406;DHT22;20658;45.630;8.886;2022-08-25T03:20:53;20.80;72.80
34406;DHT22;20658;45.630;8.886;2022-08-25T03:23:27;20.80;72.90
34406;DHT22;20658;45.630;8.886;2022-08-25T03:26:02;20.80;73.00
34406;DHT22;20658;45.630;8.886;2022-08-25T03:28:53;20.80;73.10
34406;DHT22;20658;45.630;8.886;2022-08-25T03:31:27;20.80;73.10
34406;DHT22;20658;45.630;8.886;2022-08-25T03:34:01;20.80;73.00
34406;DHT22;20658;45.630;8.886;2022-08-25T03:36:34;20.80;73.20
34406;DHT22;20658;45.630;8.886;2022-08-25T03:39:08;20.80;73.40
34406;DHT22;20658;45.630;8.886;2022-08-25T03:41:44;20.80;73.60
34406;DHT22;20658;45.630;8.886;2022-08-25T03:44:18;20.80;73.50
34406;DHT22;20658;45.630;8.886;2022-08-25T03:46:52;20.70;73.60
34406;DHT22;20658;45.630;8.886;2022-08-25T03:49:25;20.70;73.80
34406;DHT22;20658;45.630;8.886;2022-08-25T03:52:00;20.70;74.00
34406;DHT22;20658;45.630;8.886;2022-08-25T03:54:33;20.70;74.10
34406;DHT22;20658;45.630;8.886;2022-08-25T03:57:08;20.70;74.00
34406;DHT22;20658;45.630;8.886;2022-08-25T03:59:42;20.70;74.20
34406;DHT22;20658;45.630;8.886;2022-08-25T04:02:15;20.70;74.30
34406;DHT22;20658;45.630;8.886;2022-08-25T04:04:49;20.70;74.40
34406;DHT22;20658;45.630;8.886;2022-08-25T04:07:22;20.70;74.50
34406;DHT22;20658;45.630;8.886;2022-08-25T04:09:56;20.70;74.40
34406;DHT22;20658;45.630;8.886;2022-08-25T04:12:30;20.70;74.40
34406;DHT22;20658;45.630;8.886;2022-08-25T04:14:59;20.70;74.50
34406;DHT22;20658;45.630;8.886;2022-08-25T04:17:35;20.60;74.60
34406;DHT22;20658;45.630;8.886;2022-08-25T04:20:10;20.60;74.60
34406;DHT22;20658;45.630;8.886;2022-08-25T04:22:44;20.60;74.70
34406;DHT22;20658;45.630;8.886;2022-08-25T04:25:18;20.60;75.00
34406;DHT22;20658;45.630;8.886;2022-08-25T04:27:53;20.50;75.10
34406;DHT22;20658;45.630;8.886;2022-08-25T04:30:27;20.60;75.30
34406;DHT22;20658;45.630;8.886;2022-08-25T04:33:00;20.60;75.40
34406;DHT22;20658;45.630;8.886;2022-08-25T04:35:33;20.60;75.50
34406;DHT22;20658;45.630;8.886;2022-08-25T04:38:07;20.50;75.60
34406;DHT22;20658;45.630;8.886;2022-08-25T04:40:40;20.50;75.70
34406;DHT22;20658;45.630;8.886;2022-08-25T04:43:15;20.50;75.60
34406;DHT22;20658;45.630;8.886;2022-08-25T04:45:48;20.50;75.90
34406;DHT22;20658;45.630;8.886;2022-08-25T04:48:23;20.50;75.90
34406;DHT22;20658;45.630;8.886;2022-08-25T04:50:57;20.50;76.20
34406;DHT22;20658;45.630;8.886;2022-08-25T04:53:31;20.50;76.20
34406;DHT22;20658;45.630;8.886;2022-08-25T04:56:07;20.40;76.30
34406;DHT22;20658;45.630;8.886;2022-08-25T04:58:43;20.50;76.20
34406;DHT22;20658;45.630;8.886;2022-08-25T05:01:19;20.50;76.50
34406;DHT22;20658;45.630;8.886;2022-08-25T05:03:56;20.50;76.50
34406;DHT22;20658;45.630;8.886;2022-08-25T05:06:31;20.50;76.60
34406;DHT22;20658;45.630;8.886;2022-08-25T05:09:05;20.50;76.70
34406;DHT22;20658;45.630;8.886;2022-08-25T05:11:38;20.60;76.70
34406;DHT22;20658;45.630;8.886;2022-08-25T05:14:14;20.60;76.70
34406;DHT22;20658;45.630;8.886;2022-08-25T05:16:52;20.70;76.60
34406;DHT22;20658;45.630;8.886;2022-08-25T05:19:26;20.70;76.60
34406;DHT22;20658;45.630;8.886;2022-08-25T05:22:00;20.70;76.40
34406;DHT22;20658;45.630;8.886;2022-08-25T05:24:33;20.70;76.40
34406;DHT22;20658;45.630;8.886;2022-08-25T05:27:07;20.80;76.50
34406;DHT22;20658;45.630;8.886;2022-08-25T05:29:42;20.70;76.50
34406;DHT22;20658;45.630;8.886;2022-08-25T05:32:15;20.80;76.20
34406;DHT22;20658;45.630;8.886;2022-08-25T05:34:49;20.90;76.20
34406;DHT22;20658;45.630;8.886;2022-08-25T05:37:22;20.90;76.10
34406;DHT22;20658;45.630;8.886;2022-08-25T05:39:56;21.00;75.90
34406;DHT22;20658;45.630;8.886;2022-08-25T05:42:30;21.00;75.70
34406;DHT22;20658;45.630;8.886;2022-08-25T05:45:06;21.20;75.30
34406;DHT22;20658;45.630;8.886;2022-08-25T05:47:40;21.40;74.70
34406;DHT22;20658;45.630;8.886;2022-08-25T05:50:14;21.50;74.20
34406;DHT22;20658;45.630;8.886;2022-08-25T05:52:48;21.70;73.50
34406;DHT22;20658;45.630;8.886;2022-08-25T05:55:21;21.90;72.90
34406;DHT22;20658;45.630;8.886;2022-08-25T05:57:55;22.10;72.10
34406;DHT22;20658;45.630;8.886;2022-08-25T06:00:29;22.30;71.40
34406;DHT22;20658;45.630;8.886;2022-08-25T06:03:03;22.40;70.60
34406;DHT22;20658;45.630;8.886;2022-08-25T06:05:35;22.60;70.00
34406;DHT22;20658;45.630;8.886;2022-08-25T06:08:09;22.80;69.00
34406;DHT22;20658;45.630;8.886;2022-08-25T06:10:42;22.80;68.60
34406;DHT22;20658;45.630;8.886;2022-08-25T06:13:16;23.00;68.10
34406;DHT22;20658;45.630;8.886;2022-08-25T06:15:56;23.20;67.20
34406;DHT22;20658;45.630;8.886;2022-08-25T06:18:29;23.40;66.50
34406;DHT22;20658;45.630;8.886;2022-08-25T06:21:08;23.50;66.10
34406;DHT22;20658;45.630;8.886;2022-08-25T06:23:43;23.70;65.30
34406;DHT22;20658;45.630;8.886;2022-08-25T06:26:16;23.90;64.80
34406;DHT22;20658;45.630;8.886;2022-08-25T06:28:50;24.00;63.80
34406;DHT22;20658;45.630;8.886;2022-08-25T06:31:26;24.20;63.10
34406;DHT22;20658;45.630;8.886;2022-08-25T06:33:59;24.40;62.70
34406;DHT22;20658;45.630;8.886;2022-08-25T06:36:33;24.60;62.00
34406;DHT22;20658;45.630;8.886;2022-08-25T06:39:07;24.70;61.50
34406;DHT22;20658;45.630;8.886;2022-08-25T06:41:40;24.80;60.50
34406;DHT22;20658;45.630;8.886;2022-08-25T06:44:14;25.00;59.90
34406;DHT22;20658;45.630;8.886;2022-08-25T06:46:49;25.10;59.00
34406;DHT22;20658;45.630;8.886;2022-08-25T06:49:23;25.10;58.60
34406;DHT22;20658;45.630;8.886;2022-08-25T06:51:58;25.20;58.80
34406;DHT22;20658;45.630;8.886;2022-08-25T06:54:31;25.40;58.40
34406;DHT22;20658;45.630;8.886;2022-08-25T06:57:06;25.50;57.40
34406;DHT22;20658;45.630;8.886;2022-08-25T06:59:39;25.60;57.40
34406;DHT22;20658;45.630;8.886;2022-08-25T07:02:14;25.70;56.90
34406;DHT22;20658;45.630;8.886;2022-08-25T07:04:48;25.90;56.30
34406;DHT22;20658;45.630;8.886;2022-08-25T07:07:23;26.00;56.40
34406;DHT22;20658;45.630;8.886;2022-08-25T07:09:57;26.10;55.70
34406;DHT22;20658;45.630;8.886;2022-08-25T07:12:30;26.40;54.70
34406;DHT22;20658;45.630;8.886;2022-08-25T07:15:04;26.50;53.40
34406;DHT22;20658;45.630;8.886;2022-08-25T07:17:39;26.50;53.50
34406;DHT22;20658;45.630;8.886;2022-08-25T07:20:13;26.70;52.70
34406;DHT22;20658;45.630;8.886;2022-08-25T07:22:47;26.80;52.20
34406;DHT22;20658;45.630;8.886;2022-08-25T07:25:20;26.90;51.60
34406;DHT22;20658;45.630;8.886;2022-08-25T07:27:54;27.00;52.20
34406;DHT22;20658;45.630;8.886;2022-08-25T07:30:27;27.10;51.70
34406;DHT22;20658;45.630;8.886;2022-08-25T07:33:03;27.00;51.90
34406;DHT22;20658;45.630;8.886;2022-08-25T07:35:36;27.10;51.80
34406;DHT22;20658;45.630;8.886;2022-08-25T07:38:09;27.10;51.10
34406;DHT22;20658;45.630;8.886;2022-08-25T07:40:42;27.40;50.50
34406;DHT22;20658;45.630;8.886;2022-08-25T07:43:16;27.40;50.30
34406;DHT22;20658;45.630;8.886;2022-08-25T07:45:49;27.60;50.00
34406;DHT22;20658;45.630;8.886;2022-08-25T07:48:24;27.80;49.40
34406;DHT22;20658;45.630;8.886;2022-08-25T07:50:57;27.90;48.80
34406;DHT22;20658;45.630;8.886;2022-08-25T07:53:31;28.00;49.10
34406;DHT22;20658;45.630;8.886;2022-08-25T07:56:09;28.10;48.80
34406;DHT22;20658;45.630;8.886;2022-08-25T07:58:44;28.40;47.90
34406;DHT22;20658;45.630;8.886;2022-08-25T08:01:22;28.60;47.10
34406;DHT22;20658;45.630;8.886;2022-08-25T08:03:57;28.70;46.60
34406;DHT22;20658;45.630;8.886;2022-08-25T08:06:31;28.80;46.30
34406;DHT22;20658;45.630;8.886;2022-08-25T08:09:05;28.80;45.80
34406;DHT22;20658;45.630;8.886;2022-08-25T08:11:39;28.80;45.80
34406;DHT22;20658;45.630;8.886;2022-08-25T08:14:15;29.00;45.60
34406;DHT22;20658;45.630;8.886;2022-08-25T08:16:48;29.00;45.80
34406;DHT22;20658;45.630;8.886;2022-08-25T08:19:23;29.20;46.00
34406;DHT22;20658;45.630;8.886;2022-08-25T08:21:57;28.90;45.20
34406;DHT22;20658;45.630;8.886;2022-08-25T08:24:30;28.90;45.00
34406;DHT22;20658;45.630;8.886;2022-08-25T08:27:05;29.00;45.60
34406;DHT22;20658;45.630;8.886;2022-08-25T08:29:41;29.00;45.50
34406;DHT22;20658;45.630;8.886;2022-08-25T08:32:15;29.00;45.60
34406;DHT22;20658;45.630;8.886;2022-08-25T08:34:50;28.90;45.10
34406;DHT22;20658;45.630;8.886;2022-08-25T08:37:23;29.00;45.80
34406;DHT22;20658;45.630;8.886;2022-08-25T08:39:57;29.20;45.40
34406;DHT22;20658;45.630;8.886;2022-08-25T08:42:49;29.00;45.60
34406;DHT22;20658;45.630;8.886;2022-08-25T08:45:33;29.00;45.30
34406;DHT22;20658;45.630;8.886;2022-08-25T08:48:28;29.20;45.20
34406;DHT22;20658;45.630;8.886;2022-08-25T08:51:18;29.20;44.70
34406;DHT22;20658;45.630;8.886;2022-08-25T08:53:55;29.20;44.90
34406;DHT22;20658;45.630;8.886;2022-08-25T08:56:35;29.40;44.10
34406;DHT22;20658;45.630;8.886;2022-08-25T08:59:14;29.50;43.90
34406;DHT22;20658;45.630;8.886;2022-08-25T09:01:52;29.50;44.20
34406;DHT22;20658;45.630;8.886;2022-08-25T09:04:33;29.60;43.50
34406;DHT22;20658;45.630;8.886;2022-08-25T09:07:15;29.90;43.30
34406;DHT22;20658;45.630;8.886;2022-08-25T09:09:51;29.90;42.90
34406;DHT22;20658;45.630;8.886;2022-08-25T09:12:29;30.00;43.10
34406;DHT22;20658;45.630;8.886;2022-08-25T09:15:13;30.00;43.30
34406;DHT22;20658;45.630;8.886;2022-08-25T09:18:04;29.80;42.80
34406;DHT22;20658;45.630;8.886;2022-08-25T09:20:49;29.90;43.00
34406;DHT22;20658;45.630;8.886;2022-08-25T09:23:39;30.20;42.60
34406;DHT22;20658;45.630;8.886;2022-08-25T09:26:30;30.40;42.20
34406;DHT22;20658;45.630;8.886;2022-08-25T09:29:09;30.40;42.00
34406;DHT22;20658;45.630;8.886;2022-08-25T09:31:47;30.10;42.60
34406;DHT22;20658;45.630;8.886;2022-08-25T09:34:23;30.10;42.90
34406;DHT22;20658;45.630;8.886;2022-08-25T09:36:55;30.40;42.20
34406;DHT22;20658;45.630;8.886;2022-08-25T09:39:30;30.80;41.40
34406;DHT22;20658;45.630;8.886;2022-08-25T09:42:04;30.90;40.70
34406;DHT22;20658;45.630;8.886;2022-08-25T09:44:40;30.80;40.90
34406;DHT22;20658;45.630;8.886;2022-08-25T09:47:21;31.20;40.50
34406;DHT22;20658;45.630;8.886;2022-08-25T09:49:57;31.50;40.10
34406;DHT22;20658;45.630;8.886;2022-08-25T09:52:34;31.80;38.80
34406;DHT22;20658;45.630;8.886;2022-08-25T09:55:27;31.90;38.60
34406;DHT22;20658;45.630;8.886;2022-08-25T09:58:16;31.80;38.70
34406;DHT22;20658;45.630;8.886;2022-08-25T10:03:59;31.10;39.40
34406;DHT22;20658;45.630;8.886;2022-08-25T10:06:36;30.80;39.90
34406;DHT22;20658;45.630;8.886;2022-08-25T10:09:26;30.80;39.20
34406;DHT22;20658;45.630;8.886;2022-08-25T10:12:15;30.70;39.00
34406;DHT22;20658;45.630;8.886;2022-08-25T10:14:51;30.90;38.00
34406;DHT22;20658;45.630;8.886;2022-08-25T10:17:24;30.90;36.60
34406;DHT22;20658;45.630;8.886;2022-08-25T10:20:15;31.10;37.60
34406;DHT22;20658;45.630;8.886;2022-08-25T10:22:50;31.20;38.00
34406;DHT22;20658;45.630;8.886;2022-08-25T10:25:27;31.50;37.70
34406;DHT22;20658;45.630;8.886;2022-08-25T10:28:09;31.90;38.00
34406;DHT22;20658;45.630;8.886;2022-08-25T10:30:54;32.10;38.40
34406;DHT22;20658;45.630;8.886;2022-08-25T10:33:38;31.90;37.20
34406;DHT22;20658;45.630;8.886;2022-08-25T10:36:21;31.50;38.10
34406;DHT22;20658;45.630;8.886;2022-08-25T10:38:57;31.70;37.50
34406;DHT22;20658;45.630;8.886;2022-08-25T10:41:45;31.80;36.90
34406;DHT22;20658;45.630;8.886;2022-08-25T10:44:29;31.80;36.40
34406;DHT22;20658;45.630;8.886;2022-08-25T10:47:48;31.50;36.60
34406;DHT22;20658;45.630;8.886;2022-08-25T10:50:34;31.20;36.50
34406;DHT22;20658;45.630;8.886;2022-08-25T10:53:23;31.60;36.20
34406;DHT22;20658;45.630;8.886;2022-08-25T10:56:06;32.30;35.60
34406;DHT22;20658;45.630;8.886;2022-08-25T10:59:05;31.90;35.70
34406;DHT22;20658;45.630;8.886;2022-08-25T11:02:07;31.70;35.40
34406;DHT22;20658;45.630;8.886;2022-08-25T11:04:52;31.90;35.40
34406;DHT22;20658;45.630;8.886;2022-08-25T11:07:34;32.10;34.90
34406;DHT22;20658;45.630;8.886;2022-08-25T11:10:07;32.00;35.00
34406;DHT22;20658;45.630;8.886;2022-08-25T11:12:45;32.00;35.00
34406;DHT22;20658;45.630;8.886;2022-08-25T11:15:21;32.00;35.20
34406;DHT22;20658;45.630;8.886;2022-08-25T11:18:02;32.50;34.40
34406;DHT22;20658;45.630;8.886;2022-08-25T11:20:43;33.00;34.20
34406;DHT22;20658;45.630;8.886;2022-08-25T11:23:21;33.20;34.10
34406;DHT22;20658;45.630;8.886;2022-08-25T11:25:59;32.60;34.20
34406;DHT22;20658;45.630;8.886;2022-08-25T11:28:48;32.60;34.60
34406;DHT22;20658;45.630;8.886;2022-08-25T11:31:25;33.10;34.20
34406;DHT22;20658;45.630;8.886;2022-08-25T11:34:01;33.30;33.80
34406;DHT22;20658;45.630;8.886;2022-08-25T11:36:36;33.10;33.70
34406;DHT22;20658;45.630;8.886;2022-08-25T11:39:16;33.20;33.50
34406;DHT22;20658;45.630;8.886;2022-08-25T11:42:09;33.30;33.30
34406;DHT22;20658;45.630;8.886;2022-08-25T11:44:57;33.40;32.70
34406;DHT22;20658;45.630;8.886;2022-08-25T11:47:50;33.70;32.40
34406;DHT22;20658;45.630;8.886;2022-08-25T11:50:36;34.10;32.10
34406;DHT22;20658;45.630;8.886;2022-08-25T11:53:30;34.20;31.70
34406;DHT22;20658;45.630;8.886;2022-08-25T11:56:06;33.60;31.60
34406;DHT22;20658;45.630;8.886;2022-08-25T11:58:46;33.80;31.80
34406;DHT22;20658;45.630;8.886;2022-08-25T12:04:40;34.00;31.90
34406;DHT22;20658;45.630;8.886;2022-08-25T12:07:19;33.80;31.20
34406;DHT22;20658;45.630;8.886;2022-08-25T12:10:14;33.60;30.90
34406;DHT22;20658;45.630;8.886;2022-08-25T12:12:58;33.20;32.00
34406;DHT22;20658;45.630;8.886;2022-08-25T12:15:58;33.10;31.40
34406;DHT22;20658;45.630;8.886;2022-08-25T12:18:40;33.50;31.40
34406;DHT22;20658;45.630;8.886;2022-08-25T12:21:31;33.80;31.20
34406;DHT22;20658;45.630;8.886;2022-08-25T12:24:20;34.10;31.30
34406;DHT22;20658;45.630;8.886;2022-08-25T12:26:57;33.70;32.10
34406;DHT22;20658;45.630;8.886;2022-08-25T12:29:39;33.90;31.60
34406;DHT22;20658;45.630;8.886;2022-08-25T12:32:26;34.20;31.90
34406;DHT22;20658;45.630;8.886;2022-08-25T12:35:18;33.90;32.10
34406;DHT22;20658;45.630;8.886;2022-08-25T12:37:59;33.90;31.40
34406;DHT22;20658;45.630;8.886;2022-08-25T12:40:38;33.70;32.10
34406;DHT22;20658;45.630;8.886;2022-08-25T12:43:28;33.50;31.90
34406;DHT22;20658;45.630;8.886;2022-08-25T12:46:32;33.70;32.20
34406;DHT22;20658;45.630;8.886;2022-08-25T12:49:30;34.00;32.50
34406;DHT22;20658;45.630;8.886;2022-08-25T12:52:07;34.30;31.30
34406;DHT22;20658;45.630;8.886;2022-08-25T12:54:47;34.10;31.90
34406;DHT22;20658;45.630;8.886;2022-08-25T12:57:38;34.00;31.20
34406;DHT22;20658;45.630;8.886;2022-08-25T13:00:15;34.00;31.60
34406;DHT22;20658;45.630;8.886;2022-08-25T13:06:43;34.80;32.20
34406;DHT22;20658;45.630;8.886;2022-08-25T13:10:03;34.90;31.10
34406;DHT22;20658;45.630;8.886;2022-08-25T13:12:56;34.70;30.70
34406;DHT22;20658;45.630;8.886;2022-08-25T13:15:36;34.60;31.90
34406;DHT22;20658;45.630;8.886;2022-08-25T13:18:19;34.90;31.90
34406;DHT22;20658;45.630;8.886;2022-08-25T13:21:02;34.20;32.80
34406;DHT22;20658;45.630;8.886;2022-08-25T13:23:42;34.00;33.30
34406;DHT22;20658;45.630;8.886;2022-08-25T13:26:21;34.00;33.60
34406;DHT22;20658;45.630;8.886;2022-08-25T13:29:00;33.90;32.60
34406;DHT22;20658;45.630;8.886;2022-08-25T13:31:37;33.80;33.10
34406;DHT22;20658;45.630;8.886;2022-08-25T13:34:17;33.70;33.50
34406;DHT22;20658;45.630;8.886;2022-08-25T13:36:52;33.60;34.30
34406;DHT22;20658;45.630;8.886;2022-08-25T13:39:43;33.90;33.50
34406;DHT22;20658;45.630;8.886;2022-08-25T13:42:14;34.30;32.90
34406;DHT22;20658;45.630;8.886;2022-08-25T13:44:50;34.30;32.90
34406;DHT22;20658;45.630;8.886;2022-08-25T13:47:32;34.00;33.70
34406;DHT22;20658;45.630;8.886;2022-08-25T13:50:30;34.20;33.60
34406;DHT22;20658;45.630;8.886;2022-08-25T13:53:10;34.60;32.60
34406;DHT22;20658;45.630;8.886;2022-08-25T13:55:49;34.70;32.80
34406;DHT22;20658;45.630;8.886;2022-08-25T13:58:26;34.90;31.90
34406;DHT22;20658;45.630;8.886;2022-08-25T14:01:07;35.00;32.30
34406;DHT22;20658;45.630;8.886;2022-08-25T14:03:43;35.00;31.40
34406;DHT22;20658;45.630;8.886;2022-08-25T14:06:20;35.10;31.30
34406;DHT22;20658;45.630;8.886;2022-08-25T14:09:06;34.90;31.90
34406;DHT22;20658;45.630;8.886;2022-08-25T14:11:54;35.00;31.90
34406;DHT22;20658;45.630;8.886;2022-08-25T14:14:31;35.00;32.10
34406;DHT22;20658;45.630;8.886;2022-08-25T14:17:09;34.30;32.60
34406;DHT22;20658;45.630;8.886;2022-08-25T14:19:44;34.40;32.40
34406;DHT22;20658;45.630;8.886;2022-08-25T14:22:18;34.70;31.60
34406;DHT22;20658;45.630;8.886;2022-08-25T14:24:52;34.60;31.60
34406;DHT22;20658;45.630;8.886;2022-08-25T14:27:26;34.60;31.40
34406;DHT22;20658;45.630;8.886;2022-08-25T14:30:00;34.60;31.10
34406;DHT22;20658;45.630;8.886;2022-08-25T14:32:35;34.40;32.00
34406;DHT22;20658;45.630;8.886;2022-08-25T14:35:09;34.50;32.30
34406;DHT22;20658;45.630;8.886;2022-08-25T14:37:43;34.10;33.00
34406;DHT22;20658;45.630;8.886;2022-08-25T14:40:17;34.00;32.70
34406;DHT22;20658;45.630;8.886;2022-08-25T14:42:50;33.90;32.50
34406;DHT22;20658;45.630;8.886;2022-08-25T14:45:24;34.00;32.70
34406;DHT22;20658;45.630;8.886;2022-08-25T14:48:03;34.30;31.90
34406;DHT22;20658;45.630;8.886;2022-08-25T14:50:39;34.20;32.00
34406;DHT22;20658;45.630;8.886;2022-08-25T14:53:12;34.50;31.30
34406;DHT22;20658;45.630;8.886;2022-08-25T14:55:46;34.80;30.60
34406;DHT22;20658;45.630;8.886;2022-08-25T14:58:20;35.00;30.30
34406;DHT22;20658;45.630;8.886;2022-08-25T15:00:54;35.20;30.00
34406;DHT22;20658;45.630;8.886;2022-08-25T15:03:32;35.10;30.00
34406;DHT22;20658;45.630;8.886;2022-08-25T15:06:10;35.10;29.70
34406;DHT22;20658;45.630;8.886;2022-08-25T15:08:46;35.10;29.70
34406;DHT22;20658;45.630;8.886;2022-08-25T15:11:39;35.00;30.00
34406;DHT22;20658;45.630;8.886;2022-08-25T15:14:14;35.00;30.00
34406;DHT22;20658;45.630;8.886;2022-08-25T15:16:51;35.10;30.00
34406;DHT22;20658;45.630;8.886;2022-08-25T15:19:27;34.90;29.10
34406;DHT22;20658;45.630;8.886;2022-08-25T15:21:56;34.70;29.80
34406;DHT22;20658;45.630;8.886;2022-08-25T15:24:29;34.80;29.30
34406;DHT22;20658;45.630;8.886;2022-08-25T15:26:59;34.90;29.10
34406;DHT22;20658;45.630;8.886;2022-08-25T15:29:35;34.90;29.00
34406;DHT22;20658;45.630;8.886;2022-08-25T15:32:08;34.90;28.90
34406;DHT22;20658;45.630;8.886;2022-08-25T15:34:43;34.90;28.50
34406;DHT22;20658;45.630;8.886;2022-08-25T15:37:17;34.90;28.60
34406;DHT22;20658;45.630;8.886;2022-08-25T15:39:45;34.70;29.00
34406;DHT22;20658;45.630;8.886;2022-08-25T15:42:19;34.50;29.40
34406;DHT22;20658;45.630;8.886;2022-08-25T15:44:53;34.60;29.50
34406;DHT22;20658;45.630;8.886;2022-08-25T15:47:26;34.60;28.90
34406;DHT22;20658;45.630;8.886;2022-08-25T15:50:05;34.30;29.10
34406;DHT22;20658;45.630;8.886;2022-08-25T15:52:40;33.90;29.10
34406;DHT22;20658;45.630;8.886;2022-08-25T15:55:14;34.20;29.50
34406;DHT22;20658;45.630;8.886;2022-08-25T15:57:48;34.20;28.90
34406;DHT22;20658;45.630;8.886;2022-08-25T16:00:22;34.20;29.20
34406;DHT22;20658;45.630;8.886;2022-08-25T16:02:55;34.60;28.50
34406;DHT22;20658;45.630;8.886;2022-08-25T16:05:30;34.70;28.20
34406;DHT22;20658;45.630;8.886;2022-08-25T16:08:05;35.00;28.50
34406;DHT22;20658;45.630;8.886;2022-08-25T16:10:40;35.10;28.30
34406;DHT22;20658;45.630;8.886;2022-08-25T16:13:15;35.10;27.90
34406;DHT22;20658;45.630;8.886;2022-08-25T16:15:48;34.70;27.90
34406;DHT22;20658;45.630;8.886;2022-08-25T16:18:22;34.60;28.50
34406;DHT22;20658;45.630;8.886;2022-08-25T16:20:57;34.80;27.80
34406;DHT22;20658;45.630;8.886;2022-08-25T16:23:30;34.90;27.80
34406;DHT22;20658;45.630;8.886;2022-08-25T16:25:58;34.80;27.60
34406;DHT22;20658;45.630;8.886;2022-08-25T16:28:36;35.10;28.30
34406;DHT22;20658;45.630;8.886;2022-08-25T16:31:11;35.10;28.20
34406;DHT22;20658;45.630;8.886;2022-08-25T16:33:46;35.10;28.20
34406;DHT22;20658;45.630;8.886;2022-08-25T16:36:23;35.00;28.20
34406;DHT22;20658;45.630;8.886;2022-08-25T16:38:57;34.90;28.30
34406;DHT22;20658;45.630;8.886;2022-08-25T16:41:31;35.10;28.60